sensor_id;sensor_type;location;lat;lon;timestamp;P1;durP1;ratioP1;P2;durP2;ratioP2
26038;SDS011;13815;52.374;4.882;2023-08-12T00:01:02;16.83;;;1.48;;
26038;SDS011;13815;52.374;4.882;2023-08-12T00:03:28;25.95;;;2.17;;
26038;SDS011;13815;52.374;4.882;2023-08-12T00:05:53;9.40;;;1.20;;
26038;SDS011;13815;52.374;4.882;2023-08-12T00:08:19;10.88;;;1.35;;
26038;SDS011;13815;52.374;4.882;2023-08-12T00:10:44;20.58;;;1.92;;
26038;SDS011;13815;52.374;4.882;2023-08-12T00:13:10;18.92;;;1.83;;
26038;SDS011;13815;52.374;4.882;2023-08-12T00:15:35;15.60;;;1.67;;
26038;SDS011;13815;52.374;4.882;2023-08-12T00:18:01;27.52;;;1.92;;
26038;SDS011;13815;52.374;4.882;2023-08-12T00:20:29;7.78;;;1.02;;
26038;SDS011;13815;52.374;4.882;2023-08-12T00:22:54;9.27;;;1.13;;
26038;SDS011;13815;52.374;4.882;2023-08-12T00:25:20;14.65;;;1.63;;
26038;SDS011;13815;52.374;4.882;2023-08-12T00:27:45;22.85;;;2.33;;
26038;SDS011;13815;52.374;4.882;2023-08-12T00:30:11;9.70;;;1.27;;
26038;SDS011;13815;52.374;4.882;2023-08-12T00:32:36;16.98;;;1.80;;
26038;SDS011;13815;52.374;4.882;2023-08-12T00:35:02;6.97;;;1.08;;
26038;SDS011;13815;52.374;4.882;2023-08-12T00:37:28;19.52;;;1.95;;
26038;SDS011;13815;52.374;4.882;2023-08-12T00:39:53;18.48;;;1.85;;
26038;SDS011;13815;52.374;4.882;2023-08-12T00:42:21;9.00;;;1.10;;
26038;SDS011;13815;52.374;4.882;2023-08-12T00:44:46;13.48;;;1.52;;
26038;SDS011;13815;52.374;4.882;2023-08-12T00:47:12;27.77;;;2.10;;
26038;SDS011;13815;52.374;4.882;2023-08-12T00:49:37;6.43;;;0.82;;
26038;SDS011;13815;52.374;4.882;2023-08-12T00:52:05;23.15;;;1.83;;
26038;SDS011;13815;52.374;4.882;2023-08-12T00:54:30;15.43;;;1.58;;
26038;SDS011;13815;52.374;4.882;2023-08-12T00:56:55;14.85;;;1.77;;
26038;SDS011;13815;52.374;4.882;2023-08-12T00:59:21;15.82;;;1.58;;
26038;SDS011;13815;52.374;4.882;2023-08-12T01:01:47;12.90;;;1.55;;
26038;SDS011;13815;52.374;4.882;2023-08-12T01:04:12;8.82;;;1.15;;
26038;SDS011;13815;52.374;4.882;2023-08-12T01:06:38;7.80;;;1.08;;
26038;SDS011;13815;52.374;4.882;2023-08-12T01:09:04;10.02;;;1.15;;
26038;SDS011;13815;52.374;4.882;2023-08-12T01:11:39;15.52;;;1.83;;
26038;SDS011;13815;52.374;4.882;2023-08-12T01:14:18;13.65;;;1.55;;
26038;SDS011;13815;52.374;4.882;2023-08-12T01:16:46;21.70;;;1.92;;
26038;SDS011;13815;52.374;4.882;2023-08-12T01:19:28;14.73;;;1.33;;
26038;SDS011;13815;52.374;4.882;2023-08-12T01:21:59;16.73;;;1.58;;
26038;SDS011;13815;52.374;4.882;2023-08-12T01:24:36;19.95;;;1.70;;
26038;SDS011;13815;52.374;4.882;2023-08-12T01:27:03;11.15;;;1.33;;
26038;SDS011;13815;52.374;4.882;2023-08-12T01:29:29;32.92;;;2.55;;
26038;SDS011;13815;52.374;4.882;2023-08-12T01:31:58;15.85;;;1.67;;
26038;SDS011;13815;52.374;4.882;2023-08-12T01:36:54;16.92;;;1.65;;
26038;SDS011;13815;52.374;4.882;2023-08-12T01:39:21;12.60;;;1.42;;
26038;SDS011;13815;52.374;4.882;2023-08-12T01:41:48;21.27;;;1.85;;
26038;SDS011;13815;52.374;4.882;2023-08-12T01:44:17;8.75;;;1.02;;
26038;SDS011;13815;52.374;4.882;2023-08-12T01:46:43;15.07;;;1.60;;
26038;SDS011;13815;52.374;4.882;2023-08-12T01:49:09;27.95;;;2.25;;
26038;SDS011;13815;52.374;4.882;2023-08-12T01:51:34;5.22;;;0.70;;
26038;SDS011;13815;52.374;4.882;2023-08-12T01:54:00;14.48;;;1.30;;
26038;SDS011;13815;52.374;4.882;2023-08-12T01:56:25;18.30;;;1.67;;
26038;SDS011;13815;52.374;4.882;2023-08-12T01:58:50;6.85;;;0.85;;
26038;SDS011;13815;52.374;4.882;2023-08-12T02:01:16;18.33;;;2.05;;
26038;SDS011;13815;52.374;4.882;2023-08-12T02:03:41;12.85;;;1.15;;
26038;SDS011;13815;52.374;4.882;2023-08-12T02:06:06;9.25;;;2.25;;
26038;SDS011;13815;52.374;4.882;2023-08-12T02:08:32;11.45;;;1.33;;
26038;SDS011;13815;52.374;4.882;2023-08-12T02:10:57;14.25;;;1.40;;
26038;SDS011;13815;52.374;4.882;2023-08-12T02:13:22;16.40;;;1.88;;
26038;SDS011;13815;52.374;4.882;2023-08-12T02:15:48;14.35;;;1.48;;
26038;SDS011;13815;52.374;4.882;2023-08-12T02:18:13;15.82;;;1.40;;
26038;SDS011;13815;52.374;4.882;2023-08-12T02:20:40;6.22;;;0.77;;
26038;SDS011;13815;52.374;4.882;2023-08-12T02:23:08;17.60;;;1.52;;
26038;SDS011;13815;52.374;4.882;2023-08-12T02:25:34;9.48;;;1.13;;
26038;SDS011;13815;52.374;4.882;2023-08-12T02:27:59;16.08;;;1.63;;
26038;SDS011;13815;52.374;4.882;2023-08-12T02:30:25;7.65;;;1.02;;
26038;SDS011;13815;52.374;4.882;2023-08-12T02:32:50;12.38;;;1.38;;
26038;SDS011;13815;52.374;4.882;2023-08-12T02:35:17;12.52;;;1.13;;
26038;SDS011;13815;52.374;4.882;2023-08-12T02:37:43;9.02;;;1.00;;
26038;SDS011;13815;52.374;4.882;2023-08-12T02:40:08;14.52;;;1.48;;
26038;SDS011;13815;52.374;4.882;2023-08-12T02:42:35;9.07;;;0.82;;
26038;SDS011;13815;52.374;4.882;2023-08-12T02:45:01;29.55;;;2.13;;
26038;SDS011;13815;52.374;4.882;2023-08-12T02:47:26;11.50;;;1.23;;
26038;SDS011;13815;52.374;4.882;2023-08-12T02:49:52;15.60;;;1.30;;
26038;SDS011;13815;52.374;4.882;2023-08-12T02:52:17;17.60;;;1.52;;
26038;SDS011;13815;52.374;4.882;2023-08-12T02:54:44;17.88;;;1.60;;
26038;SDS011;13815;52.374;4.882;2023-08-12T02:57:09;17.38;;;1.58;;
26038;SDS011;13815;52.374;4.882;2023-08-12T02:59:35;11.45;;;1.13;;
26038;SDS011;13815;52.374;4.882;2023-08-12T03:02:00;23.88;;;2.00;;
26038;SDS011;13815;52.374;4.882;2023-08-12T03:04:25;15.65;;;1.27;;
26038;SDS011;13815;52.374;4.882;2023-08-12T03:06:51;12.98;;;1.05;;
26038;SDS011;13815;52.374;4.882;2023-08-12T03:09:16;14.55;;;1.25;;
26038;SDS011;13815;52.374;4.882;2023-08-12T03:11:43;19.25;;;1.77;;
26038;SDS011;13815;52.374;4.882;2023-08-12T03:14:08;10.40;;;1.27;;
26038;SDS011;13815;52.374;4.882;2023-08-12T03:16:34;23.48;;;2.50;;
26038;SDS011;13815;52.374;4.882;2023-08-12T03:19:00;6.05;;;0.80;;
26038;SDS011;13815;52.374;4.882;2023-08-12T03:21:25;6.75;;;0.85;;
26038;SDS011;13815;52.374;4.882;2023-08-12T03:23:51;13.30;;;1.25;;
26038;SDS011;13815;52.374;4.882;2023-08-12T03:26:16;27.05;;;2.10;;
26038;SDS011;13815;52.374;4.882;2023-08-12T03:28:41;17.17;;;1.67;;
26038;SDS011;13815;52.374;4.882;2023-08-12T03:31:07;17.50;;;1.60;;
26038;SDS011;13815;52.374;4.882;2023-08-12T03:33:32;19.02;;;1.60;;
26038;SDS011;13815;52.374;4.882;2023-08-12T03:35:58;11.48;;;1.20;;
26038;SDS011;13815;52.374;4.882;2023-08-12T03:38:24;20.48;;;1.77;;
26038;SDS011;13815;52.374;4.882;2023-08-12T03:40:49;11.55;;;1.13;;
26038;SDS011;13815;52.374;4.882;2023-08-12T03:43:15;5.55;;;0.65;;
26038;SDS011;13815;52.374;4.882;2023-08-12T03:45:41;9.80;;;0.98;;
26038;SDS011;13815;52.374;4.882;2023-08-12T03:48:07;25.08;;;1.85;;
26038;SDS011;13815;52.374;4.882;2023-08-12T03:50:33;23.02;;;1.95;;
26038;SDS011;13815;52.374;4.882;2023-08-12T03:53:02;19.67;;;1.48;;
26038;SDS011;13815;52.374;4.882;2023-08-12T03:55:30;5.40;;;0.70;;
26038;SDS011;13815;52.374;4.882;2023-08-12T03:57:56;19.40;;;1.58;;
26038;SDS011;13815;52.374;4.882;2023-08-12T04:00:24;24.60;;;1.80;;
26038;SDS011;13815;52.374;4.882;2023-08-12T04:02:50;6.43;;;0.63;;
26038;SDS011;13815;52.374;4.882;2023-08-12T04:05:18;12.68;;;0.98;;
26038;SDS011;13815;52.374;4.882;2023-08-12T04:07:43;18.33;;;1.33;;
26038;SDS011;13815;52.374;4.882;2023-08-12T04:10:09;19.77;;;1.60;;
26038;SDS011;13815;52.374;4.882;2023-08-12T04:12:35;21.38;;;1.67;;
26038;SDS011;13815;52.374;4.882;2023-08-12T04:15:00;5.65;;;0.60;;
26038;SDS011;13815;52.374;4.882;2023-08-12T04:17:29;13.73;;;0.93;;
26038;SDS011;13815;52.374;4.882;2023-08-12T04:19:54;35.65;;;2.92;;
26038;SDS011;13815;52.374;4.882;2023-08-12T04:22:19;5.13;;;0.60;;
26038;SDS011;13815;52.374;4.882;2023-08-12T04:24:45;17.23;;;1.40;;
26038;SDS011;13815;52.374;4.882;2023-08-12T04:27:10;16.67;;;1.45;;
26038;SDS011;13815;52.374;4.882;2023-08-12T04:29:35;7.00;;;0.75;;
26038;SDS011;13815;52.374;4.882;2023-08-12T04:32:01;20.63;;;1.67;;
26038;SDS011;13815;52.374;4.882;2023-08-12T04:34:27;13.75;;;1.25;;
26038;SDS011;13815;52.374;4.882;2023-08-12T04:36:52;10.88;;;1.08;;
26038;SDS011;13815;52.374;4.882;2023-08-12T04:39:18;6.53;;;0.73;;
26038;SDS011;13815;52.374;4.882;2023-08-12T04:41:43;18.08;;;1.48;;
26038;SDS011;13815;52.374;4.882;2023-08-12T04:44:08;9.60;;;1.10;;
26038;SDS011;13815;52.374;4.882;2023-08-12T04:46:34;13.32;;;1.40;;
26038;SDS011;13815;52.374;4.882;2023-08-12T04:48:59;30.58;;;2.63;;
26038;SDS011;13815;52.374;4.882;2023-08-12T04:51:24;9.52;;;0.98;;
26038;SDS011;13815;52.374;4.882;2023-08-12T04:53:52;6.70;;;0.68;;
26038;SDS011;13815;52.374;4.882;2023-08-12T04:56:18;9.95;;;1.13;;
26038;SDS011;13815;52.374;4.882;2023-08-12T04:58:43;6.63;;;0.77;;
26038;SDS011;13815;52.374;4.882;2023-08-12T05:01:09;14.05;;;1.17;;
26038;SDS011;13815;52.374;4.882;2023-08-12T05:03:34;14.45;;;1.45;;
26038;SDS011;13815;52.374;4.882;2023-08-12T05:05:59;15.60;;;1.17;;
26038;SDS011;13815;52.374;4.882;2023-08-12T05:08:25;14.68;;;1.20;;
26038;SDS011;13815;52.374;4.882;2023-08-12T05:10:50;17.60;;;1.75;;
26038;SDS011;13815;52.374;4.882;2023-08-12T05:13:16;14.27;;;1.10;;
26038;SDS011;13815;52.374;4.882;2023-08-12T05:15:45;15.57;;;1.30;;
26038;SDS011;13815;52.374;4.882;2023-08-12T05:18:11;21.02;;;2.05;;
26038;SDS011;13815;52.374;4.882;2023-08-12T05:20:36;14.55;;;1.15;;
26038;SDS011;13815;52.374;4.882;2023-08-12T05:23:02;33.08;;;2.95;;
26038;SDS011;13815;52.374;4.882;2023-08-12T05:25:27;13.40;;;1.38;;
26038;SDS011;13815;52.374;4.882;2023-08-12T05:27:53;15.68;;;1.30;;
26038;SDS011;13815;52.374;4.882;2023-08-12T05:30:18;16.38;;;1.65;;
26038;SDS011;13815;52.374;4.882;2023-08-12T05:32:43;5.95;;;0.57;;
26038;SDS011;13815;52.374;4.882;2023-08-12T05:35:09;9.52;;;0.95;;
26038;SDS011;13815;52.374;4.882;2023-08-12T05:37:34;25.92;;;1.95;;
26038;SDS011;13815;52.374;4.882;2023-08-12T05:40:00;18.92;;;1.90;;
26038;SDS011;13815;52.374;4.882;2023-08-12T05:42:25;7.63;;;0.82;;
26038;SDS011;13815;52.374;4.882;2023-08-12T05:44:50;15.32;;;1.55;;
26038;SDS011;13815;52.374;4.882;2023-08-12T05:47:18;7.60;;;0.80;;
26038;SDS011;13815;52.374;4.882;2023-08-12T05:49:43;20.15;;;1.58;;
26038;SDS011;13815;52.374;4.882;2023-08-12T05:52:09;9.65;;;0.95;;
26038;SDS011;13815;52.374;4.882;2023-08-12T05:54:35;16.00;;;1.55;;
26038;SDS011;13815;52.374;4.882;2023-08-12T05:57:00;29.77;;;2.33;;
26038;SDS011;13815;52.374;4.882;2023-08-12T05:59:25;8.90;;;1.02;;
26038;SDS011;13815;52.374;4.882;2023-08-12T06:01:51;13.35;;;1.05;;
26038;SDS011;13815;52.374;4.882;2023-08-12T06:04:16;14.20;;;1.45;;
26038;SDS011;13815;52.374;4.882;2023-08-12T06:06:41;20.60;;;1.45;;
26038;SDS011;13815;52.374;4.882;2023-08-12T06:09:07;15.25;;;1.25;;
26038;SDS011;13815;52.374;4.882;2023-08-12T06:11:33;20.02;;;1.42;;
26038;SDS011;13815;52.374;4.882;2023-08-12T06:13:58;10.02;;;1.15;;
26038;SDS011;13815;52.374;4.882;2023-08-12T06:16:23;9.38;;;0.98;;
26038;SDS011;13815;52.374;4.882;2023-08-12T06:18:49;23.27;;;2.08;;
26038;SDS011;13815;52.374;4.882;2023-08-12T06:21:14;6.53;;;0.70;;
26038;SDS011;13815;52.374;4.882;2023-08-12T06:23:40;22.48;;;2.13;;
26038;SDS011;13815;52.374;4.882;2023-08-12T06:26:05;7.63;;;0.82;;
26038;SDS011;13815;52.374;4.882;2023-08-12T06:28:31;17.90;;;1.58;;
26038;SDS011;13815;52.374;4.882;2023-08-12T06:30:56;17.58;;;1.90;;
26038;SDS011;13815;52.374;4.882;2023-08-12T06:33:22;19.50;;;1.98;;
26038;SDS011;13815;52.374;4.882;2023-08-12T06:35:47;18.77;;;1.55;;
26038;SDS011;13815;52.374;4.882;2023-08-12T06:38:12;15.00;;;1.50;;
26038;SDS011;13815;52.374;4.882;2023-08-12T06:40:38;21.35;;;2.03;;
26038;SDS011;13815;52.374;4.882;2023-08-12T06:43:04;16.13;;;1.75;;
26038;SDS011;13815;52.374;4.882;2023-08-12T06:45:29;14.43;;;1.27;;
26038;SDS011;13815;52.374;4.882;2023-08-12T06:47:55;10.27;;;1.20;;
26038;SDS011;13815;52.374;4.882;2023-08-12T06:50:20;22.77;;;1.92;;
26038;SDS011;13815;52.374;4.882;2023-08-12T06:52:45;19.40;;;1.70;;
26038;SDS011;13815;52.374;4.882;2023-08-12T06:55:11;13.95;;;1.45;;
26038;SDS011;13815;52.374;4.882;2023-08-12T06:57:36;10.82;;;1.10;;
26038;SDS011;13815;52.374;4.882;2023-08-12T07:00:02;18.58;;;1.75;;
26038;SDS011;13815;52.374;4.882;2023-08-12T07:02:28;11.88;;;1.33;;
26038;SDS011;13815;52.374;4.882;2023-08-12T07:04:53;12.10;;;1.35;;
26038;SDS011;13815;52.374;4.882;2023-08-12T07:07:18;20.20;;;2.10;;
26038;SDS011;13815;52.374;4.882;2023-08-12T07:09:44;20.17;;;1.48;;
26038;SDS011;13815;52.374;4.882;2023-08-12T07:12:09;9.45;;;1.05;;
26038;SDS011;13815;52.374;4.882;2023-08-12T07:14:35;3.47;;;0.43;;
26038;SDS011;13815;52.374;4.882;2023-08-12T07:17:00;9.57;;;1.05;;
26038;SDS011;13815;52.374;4.882;2023-08-12T07:19:26;15.48;;;1.42;;
26038;SDS011;13815;52.374;4.882;2023-08-12T07:21:51;8.88;;;1.10;;
26038;SDS011;13815;52.374;4.882;2023-08-12T07:24:17;10.80;;;1.20;;
26038;SDS011;13815;52.374;4.882;2023-08-12T07:26:42;27.67;;;2.08;;
26038;SDS011;13815;52.374;4.882;2023-08-12T07:29:08;4.13;;;0.52;;
26038;SDS011;13815;52.374;4.882;2023-08-12T07:31:33;17.42;;;1.52;;
26038;SDS011;13815;52.374;4.882;2023-08-12T07:33:58;17.05;;;1.40;;
26038;SDS011;13815;52.374;4.882;2023-08-12T07:36:24;10.80;;;1.23;;
26038;SDS011;13815;52.374;4.882;2023-08-12T07:38:49;19.38;;;1.58;;
26038;SDS011;13815;52.374;4.882;2023-08-12T07:41:15;21.15;;;1.48;;
26038;SDS011;13815;52.374;4.882;2023-08-12T07:43:40;20.65;;;2.30;;
26038;SDS011;13815;52.374;4.882;2023-08-12T07:46:05;20.80;;;1.88;;
26038;SDS011;13815;52.374;4.882;2023-08-12T07:48:34;32.38;;;3.05;;
26038;SDS011;13815;52.374;4.882;2023-08-12T07:50:59;9.98;;;1.20;;
26038;SDS011;13815;52.374;4.882;2023-08-12T07:53:25;9.70;;;1.17;;
26038;SDS011;13815;52.374;4.882;2023-08-12T07:55:50;18.70;;;1.83;;
26038;SDS011;13815;52.374;4.882;2023-08-12T07:58:16;4.13;;;0.55;;
26038;SDS011;13815;52.374;4.882;2023-08-12T08:00:41;21.10;;;1.95;;
26038;SDS011;13815;52.374;4.882;2023-08-12T08:06:03;23.65;;;2.17;;
26038;SDS011;13815;52.374;4.882;2023-08-12T08:08:29;25.67;;;2.53;;
26038;SDS011;13815;52.374;4.882;2023-08-12T08:10:54;22.40;;;2.25;;
26038;SDS011;13815;52.374;4.882;2023-08-12T08:13:20;17.38;;;1.25;;
26038;SDS011;13815;52.374;4.882;2023-08-12T08:15:45;9.40;;;1.17;;
26038;SDS011;13815;52.374;4.882;2023-08-12T08:18:11;14.32;;;1.35;;
26038;SDS011;13815;52.374;4.882;2023-08-12T08:20:36;24.75;;;2.42;;
26038;SDS011;13815;52.374;4.882;2023-08-12T08:23:02;11.48;;;1.38;;
26038;SDS011;13815;52.374;4.882;2023-08-12T08:25:27;16.73;;;1.80;;
26038;SDS011;13815;52.374;4.882;2023-08-12T08:27:53;10.35;;;1.23;;
26038;SDS011;13815;52.374;4.882;2023-08-12T08:30:18;6.70;;;0.95;;
26038;SDS011;13815;52.374;4.882;2023-08-12T08:32:43;19.83;;;2.22;;
26038;SDS011;13815;52.374;4.882;2023-08-12T08:35:11;13.70;;;1.40;;
26038;SDS011;13815;52.374;4.882;2023-08-12T08:37:37;14.10;;;1.67;;
26038;SDS011;13815;52.374;4.882;2023-08-12T08:40:02;32.97;;;3.33;;
26038;SDS011;13815;52.374;4.882;2023-08-12T08:42:28;23.60;;;1.98;;
26038;SDS011;13815;52.374;4.882;2023-08-12T08:44:56;12.05;;;1.05;;
26038;SDS011;13815;52.374;4.882;2023-08-12T08:47:27;24.65;;;2.25;;
26038;SDS011;13815;52.374;4.882;2023-08-12T08:49:55;13.38;;;1.80;;
26038;SDS011;13815;52.374;4.882;2023-08-12T08:52:22;7.22;;;1.30;;
26038;SDS011;13815;52.374;4.882;2023-08-12T08:54:48;13.05;;;1.67;;
26038;SDS011;13815;52.374;4.882;2023-08-12T08:57:14;15.93;;;2.40;;
26038;SDS011;13815;52.374;4.882;2023-08-12T08:59:40;12.57;;;1.25;;
26038;SDS011;13815;52.374;4.882;2023-08-12T09:02:05;9.57;;;1.20;;
26038;SDS011;13815;52.374;4.882;2023-08-12T09:04:37;11.98;;;1.50;;
26038;SDS011;13815;52.374;4.882;2023-08-12T09:07:03;10.02;;;1.17;;
26038;SDS011;13815;52.374;4.882;2023-08-12T09:09:30;3.95;;;0.93;;
26038;SDS011;13815;52.374;4.882;2023-08-12T09:11:56;18.65;;;1.85;;
26038;SDS011;13815;52.374;4.882;2023-08-12T09:14:21;14.40;;;1.85;;
26038;SDS011;13815;52.374;4.882;2023-08-12T09:16:46;6.13;;;1.40;;
26038;SDS011;13815;52.374;4.882;2023-08-12T09:19:12;13.35;;;1.92;;
26038;SDS011;13815;52.374;4.882;2023-08-12T09:21:37;8.60;;;1.20;;
26038;SDS011;13815;52.374;4.882;2023-08-12T09:24:03;11.45;;;1.83;;
26038;SDS011;13815;52.374;4.882;2023-08-12T09:26:32;13.43;;;1.65;;
26038;SDS011;13815;52.374;4.882;2023-08-12T09:28:57;14.00;;;1.38;;
26038;SDS011;13815;52.374;4.882;2023-08-12T09:31:27;12.27;;;1.60;;
26038;SDS011;13815;52.374;4.882;2023-08-12T09:34:14;15.68;;;2.40;;
26038;SDS011;13815;52.374;4.882;2023-08-12T09:36:39;18.50;;;2.08;;
26038;SDS011;13815;52.374;4.882;2023-08-12T09:39:08;21.88;;;2.30;;
26038;SDS011;13815;52.374;4.882;2023-08-12T09:41:33;10.20;;;1.27;;
26038;SDS011;13815;52.374;4.882;2023-08-12T09:44:01;19.20;;;2.13;;
26038;SDS011;13815;52.374;4.882;2023-08-12T09:46:27;26.00;;;2.45;;
26038;SDS011;13815;52.374;4.882;2023-08-12T09:48:52;27.40;;;2.78;;
26038;SDS011;13815;52.374;4.882;2023-08-12T09:51:18;9.20;;;1.17;;
26038;SDS011;13815;52.374;4.882;2023-08-12T09:53:47;13.23;;;1.75;;
26038;SDS011;13815;52.374;4.882;2023-08-12T09:56:22;24.52;;;2.20;;
26038;SDS011;13815;52.374;4.882;2023-08-12T09:58:48;34.28;;;3.13;;
26038;SDS011;13815;52.374;4.882;2023-08-12T10:01:16;16.13;;;2.28;;
26038;SDS011;13815;52.374;4.882;2023-08-12T10:03:43;25.25;;;2.38;;
26038;SDS011;13815;52.374;4.882;2023-08-12T10:08:42;35.75;;;3.10;;
26038;SDS011;13815;52.374;4.882;2023-08-12T10:11:08;17.30;;;1.90;;
26038;SDS011;13815;52.374;4.882;2023-08-12T10:13:35;23.67;;;2.38;;
26038;SDS011;13815;52.374;4.882;2023-08-12T10:16:03;32.78;;;2.95;;
26038;SDS011;13815;52.374;4.882;2023-08-12T10:18:29;45.47;;;4.15;;
26038;SDS011;13815;52.374;4.882;2023-08-12T10:20:56;23.40;;;2.47;;
26038;SDS011;13815;52.374;4.882;2023-08-12T10:23:23;25.27;;;2.20;;
26038;SDS011;13815;52.374;4.882;2023-08-12T10:25:49;40.55;;;3.72;;
26038;SDS011;13815;52.374;4.882;2023-08-12T10:28:18;25.20;;;2.35;;
26038;SDS011;13815;52.374;4.882;2023-08-12T10:30:44;36.40;;;3.42;;
26038;SDS011;13815;52.374;4.882;2023-08-12T10:33:10;25.60;;;2.63;;
26038;SDS011;13815;52.374;4.882;2023-08-12T10:35:48;20.90;;;2.08;;
26038;SDS011;13815;52.374;4.882;2023-08-12T10:38:17;30.10;;;3.08;;
26038;SDS011;13815;52.374;4.882;2023-08-12T10:40:44;18.55;;;1.92;;
26038;SDS011;13815;52.374;4.882;2023-08-12T10:43:11;21.20;;;2.20;;
26038;SDS011;13815;52.374;4.882;2023-08-12T10:45:46;23.23;;;3.15;;
26038;SDS011;13815;52.374;4.882;2023-08-12T10:48:16;27.85;;;4.47;;
26038;SDS011;13815;52.374;4.882;2023-08-12T10:50:45;29.00;;;5.55;;
26038;SDS011;13815;52.374;4.882;2023-08-12T10:53:24;45.05;;;7.88;;
26038;SDS011;13815;52.374;4.882;2023-08-12T10:55:55;44.20;;;8.30;;
26038;SDS011;13815;52.374;4.882;2023-08-12T10:58:28;50.47;;;11.10;;
26038;SDS011;13815;52.374;4.882;2023-08-12T11:00:54;60.28;;;16.42;;
26038;SDS011;13815;52.374;4.882;2023-08-12T11:03:20;46.67;;;21.08;;
26038;SDS011;13815;52.374;4.882;2023-08-12T11:05:46;50.35;;;21.65;;
26038;SDS011;13815;52.374;4.882;2023-08-12T11:08:12;74.90;;;24.80;;
26038;SDS011;13815;52.374;4.882;2023-08-12T11:10:38;54.38;;;23.83;;
26038;SDS011;13815;52.374;4.882;2023-08-12T11:13:04;46.55;;;23.80;;
26038;SDS011;13815;52.374;4.882;2023-08-12T11:15:37;55.05;;;24.20;;
26038;SDS011;13815;52.374;4.882;2023-08-12T11:18:12;72.45;;;25.65;;
26038;SDS011;13815;52.374;4.882;2023-08-12T11:20:39;53.33;;;25.13;;
26038;SDS011;13815;52.374;4.882;2023-08-12T11:23:05;49.88;;;24.73;;
26038;SDS011;13815;52.374;4.882;2023-08-12T11:25:32;64.30;;;26.95;;
26038;SDS011;13815;52.374;4.882;2023-08-12T11:27:59;57.35;;;26.05;;
26038;SDS011;13815;52.374;4.882;2023-08-12T11:30:24;54.20;;;26.27;;
26038;SDS011;13815;52.374;4.882;2023-08-12T11:32:51;69.53;;;26.80;;
26038;SDS011;13815;52.374;4.882;2023-08-12T11:35:18;82.95;;;28.58;;
26038;SDS011;13815;52.374;4.882;2023-08-12T11:37:45;66.43;;;26.90;;
26038;SDS011;13815;52.374;4.882;2023-08-12T11:40:21;62.10;;;25.08;;
26038;SDS011;13815;52.374;4.882;2023-08-12T11:42:47;56.50;;;25.48;;
26038;SDS011;13815;52.374;4.882;2023-08-12T11:45:15;51.10;;;24.52;;
26038;SDS011;13815;52.374;4.882;2023-08-12T11:47:42;68.50;;;25.60;;
26038;SDS011;13815;52.374;4.882;2023-08-12T11:50:08;60.53;;;25.15;;
26038;SDS011;13815;52.374;4.882;2023-08-12T11:52:35;70.32;;;26.33;;
26038;SDS011;13815;52.374;4.882;2023-08-12T11:55:01;76.38;;;26.95;;
26038;SDS011;13815;52.374;4.882;2023-08-12T11:57:27;75.68;;;25.75;;
26038;SDS011;13815;52.374;4.882;2023-08-12T11:59:57;67.32;;;26.65;;
26038;SDS011;13815;52.374;4.882;2023-08-12T12:02:24;61.50;;;26.67;;
26038;SDS011;13815;52.374;4.882;2023-08-12T12:04:51;74.68;;;28.42;;
26038;SDS011;13815;52.374;4.882;2023-08-12T12:07:20;71.72;;;27.73;;
26038;SDS011;13815;52.374;4.882;2023-08-12T12:09:50;86.53;;;28.67;;
26038;SDS011;13815;52.374;4.882;2023-08-12T12:12:16;57.95;;;26.40;;
26038;SDS011;13815;52.374;4.882;2023-08-12T12:14:55;76.18;;;27.48;;
26038;SDS011;13815;52.374;4.882;2023-08-12T12:17:21;71.57;;;28.55;;
26038;SDS011;13815;52.374;4.882;2023-08-12T12:19:51;68.82;;;29.23;;
26038;SDS011;13815;52.374;4.882;2023-08-12T12:24:45;85.37;;;29.37;;
26038;SDS011;13815;52.374;4.882;2023-08-12T12:27:14;54.13;;;26.42;;
26038;SDS011;13815;52.374;4.882;2023-08-12T12:29:40;63.92;;;28.80;;
26038;SDS011;13815;52.374;4.882;2023-08-12T12:32:05;86.82;;;30.25;;
26038;SDS011;13815;52.374;4.882;2023-08-12T12:34:31;73.30;;;28.13;;
26038;SDS011;13815;52.374;4.882;2023-08-12T12:36:56;67.18;;;26.38;;
26038;SDS011;13815;52.374;4.882;2023-08-12T12:39:24;61.58;;;27.75;;
26038;SDS011;13815;52.374;4.882;2023-08-12T12:41:50;60.58;;;27.48;;
26038;SDS011;13815;52.374;4.882;2023-08-12T12:44:15;75.50;;;29.55;;
26038;SDS011;13815;52.374;4.882;2023-08-12T12:50:02;57.78;;;28.65;;
26038;SDS011;13815;52.374;4.882;2023-08-12T12:52:28;73.95;;;30.27;;
26038;SDS011;13815;52.374;4.882;2023-08-12T12:54:53;76.85;;;29.48;;
26038;SDS011;13815;52.374;4.882;2023-08-12T12:57:19;94.97;;;29.67;;
26038;SDS011;13815;52.374;4.882;2023-08-12T12:59:44;103.30;;;30.90;;
26038;SDS011;13815;52.374;4.882;2023-08-12T13:02:09;85.03;;;29.10;;
26038;SDS011;13815;52.374;4.882;2023-08-12T13:04:35;66.72;;;28.27;;
26038;SDS011;13815;52.374;4.882;2023-08-12T13:07:01;95.22;;;30.48;;
26038;SDS011;13815;52.374;4.882;2023-08-12T13:09:26;125.20;;;33.28;;
26038;SDS011;13815;52.374;4.882;2023-08-12T13:11:51;83.05;;;29.30;;
26038;SDS011;13815;52.374;4.882;2023-08-12T13:14:17;108.28;;;32.72;;
26038;SDS011;13815;52.374;4.882;2023-08-12T13:16:45;70.63;;;30.55;;
26038;SDS011;13815;52.374;4.882;2023-08-12T13:19:11;88.25;;;31.25;;
26038;SDS011;13815;52.374;4.882;2023-08-12T13:21:36;83.38;;;30.42;;
26038;SDS011;13815;52.374;4.882;2023-08-12T13:24:02;97.57;;;31.98;;
26038;SDS011;13815;52.374;4.882;2023-08-12T13:26:28;77.00;;;30.63;;
26038;SDS011;13815;52.374;4.882;2023-08-12T13:28:57;85.50;;;30.90;;
26038;SDS011;13815;52.374;4.882;2023-08-12T13:31:22;73.50;;;30.08;;
26038;SDS011;13815;52.374;4.882;2023-08-12T13:33:48;89.75;;;31.85;;
26038;SDS011;13815;52.374;4.882;2023-08-12T13:36:14;72.03;;;29.95;;
26038;SDS011;13815;52.374;4.882;2023-08-12T13:38:40;77.30;;;30.38;;
26038;SDS011;13815;52.374;4.882;2023-08-12T13:41:05;83.13;;;30.67;;
26038;SDS011;13815;52.374;4.882;2023-08-12T13:43:30;85.72;;;29.90;;
26038;SDS011;13815;52.374;4.882;2023-08-12T13:45:56;67.72;;;28.58;;
26038;SDS011;13815;52.374;4.882;2023-08-12T13:48:25;73.22;;;29.77;;
26038;SDS011;13815;52.374;4.882;2023-08-12T13:50:50;66.82;;;28.70;;
26038;SDS011;13815;52.374;4.882;2023-08-12T13:53:17;80.25;;;32.50;;
26038;SDS011;13815;52.374;4.882;2023-08-12T13:55:42;87.22;;;32.60;;
26038;SDS011;13815;52.374;4.882;2023-08-12T13:58:08;64.32;;;29.35;;
26038;SDS011;13815;52.374;4.882;2023-08-12T14:00:33;93.65;;;32.15;;
26038;SDS011;13815;52.374;4.882;2023-08-12T14:02:59;90.28;;;31.88;;
26038;SDS011;13815;52.374;4.882;2023-08-12T14:05:24;80.45;;;30.75;;
26038;SDS011;13815;52.374;4.882;2023-08-12T14:07:50;88.45;;;32.65;;
26038;SDS011;13815;52.374;4.882;2023-08-12T14:10:15;98.57;;;33.00;;
26038;SDS011;13815;52.374;4.882;2023-08-12T14:12:41;78.78;;;31.45;;
26038;SDS011;13815;52.374;4.882;2023-08-12T14:15:06;75.88;;;31.48;;
26038;SDS011;13815;52.374;4.882;2023-08-12T14:17:32;97.88;;;34.50;;
26038;SDS011;13815;52.374;4.882;2023-08-12T14:20:00;78.13;;;31.23;;
26038;SDS011;13815;52.374;4.882;2023-08-12T14:22:25;75.03;;;30.20;;
26038;SDS011;13815;52.374;4.882;2023-08-12T14:24:51;92.82;;;31.98;;
26038;SDS011;13815;52.374;4.882;2023-08-12T14:27:16;68.80;;;30.00;;
26038;SDS011;13815;52.374;4.882;2023-08-12T14:29:45;88.47;;;30.95;;
26038;SDS011;13815;52.374;4.882;2023-08-12T14:32:10;75.88;;;30.27;;
26038;SDS011;13815;52.374;4.882;2023-08-12T14:34:36;62.22;;;29.83;;
26038;SDS011;13815;52.374;4.882;2023-08-12T14:37:02;85.15;;;33.80;;
26038;SDS011;13815;52.374;4.882;2023-08-12T14:39:28;90.30;;;30.40;;
26038;SDS011;13815;52.374;4.882;2023-08-12T14:41:53;102.30;;;31.80;;